Coatsville, Missouri
Current Conditions -  °F | °C
As of 2:30 PM on Friday 21 Nov 2014 (Local Time) from KTVK Reporting Station
Broken Clouds Broken Clouds  
Wind Chill: 28°   Ceiling: 1700
Heat Index: 36°   Visibility: 10mi
Dew Point: 21°   Wind: 10mph
Humidity: 56%   Direction: 130°SE
Pressure: 30.19"   Gusts: NA
Location:  40.59°N, 92.63°W
Report Text: KTVK 212030Z AUTO 13009KT 10SM BKN017 02/M06 A3019 RMK AO2
Loading
Personal Weather Stations






























Interactive Weather Map New forecast layout! Learn more

10-Day Weather Forecast

Advertisements
Track Severe Weather on mobile